Great Malvern, United Kingdom

4:43 AM GMT on February 27, 2015 (GMT +0000)
Malvern Link | Change Station
CLOSE
Current Station
Personal Weather Station
Location: Great Malvern, WORCS
Elevation: 141 ft
Nearby Weather Stations

Elev 141 ft 52.12 °N, 2.31 °W | Updated 1 second ago

Clear
Clear
38.7 °F
Feels Like 34 °F
N
6.0
Wind Variable Wind from West
Gusts 15.0 mph

Today
High -- | Low -- °F
--% Chance of Precip.
Yesterday
High -- | Low -- °F
Precip. -- in
7:00 AM 5:44 PM
Waxing Gibbous, 65% visible
Pressure 30.04 in
Visibility -9999.0 miles
Clouds
Windchill 34 °F
Dew Point 33 °F
Humidity 81%
Rainfall 0.00 in
Snow Depth Not available.
UV Not available.
Pollen Not available.
Air Quality Not available.
Flu Activity Not available.
METAR EGBB 270420Z 26005KT CAVOK 01/M01 Q1017

More Conditions Fewer Conditions

Pressure 30.04 in
Visibility -9999.0 miles
Clouds
Windchill 34 °F
Dew Point 33 °F
Humidity 81%
Rainfall 0.00 in
Snow Depth Not available.
UV Not available.
Pollen Not available.
Air Quality Not available.
Flu Activity Not available.
METAR EGBB 270420Z 26005KT CAVOK 01/M01 Q1017

More Conditions Fewer Conditions

10-Day Weather Forecast

Almanac

Astronomy

Feb. 27, 2015 Rise Set
Actual Time
Civil Twilight
Nautical Twilight
Astronomical Twilight
Moon
Length of Visible Light
Length of Day
Tomorrow will be .
, % of the Moon is Illuminated

Today's Extremes

Country Highs Country Lows

Community

WunderPhotos

Upload Photos

1,800,632 photos uploaded!

WunderBlogs® & News

Nearby

Air Quality

  Air Quality AQ Index Pollutant
Not available.

Snow Depth

Station Depth Elevation

Earthquake Activity

City Distance Mag. Time & Date
Minimum magnitude displayed is 2.5.

Coastal Water Temperatures

Place Temperature

Nearby Weather Stations